Historique des mesures à Cassis (13260), France
Quotidien Résumé Fevrier 23, 2017 Unités:  US    Métrique   Métrique/US
« Précédent (Jour)
Suivant (Jour) »
Quotidien Hebdomadaire Mensuel Annuel Période au choix
  Maximum: Minimum: Moyenne:
Température: 32 °F 48.9 °F 53.8 °F
Point de rosée: 32 °F 43.9 °F 46.9 °F
Humidité: Humidity % 65 % 74 %
Vitesse du vent: WindSpeedKMH mph 0.0 mph 0.6 mph
Rafales: WindSpeedGustKMH mph - -
Vent:- - SE
Pression: 0 in 29.8 in -
Précipitations: 0 in    
Historical Graphs
 
 
Mesures pour : Fevrier 23, 2017
Heure Temperature Point de rosée Pression Vent Vitesse du vent Rafales Humidité Pluie (par heure) Conditions
32 °F 32 °F 0 in Calm     Humidity % 0 in SoftwareType W/m2
00:10 50.9 °F 44.6 °F 30 in Calm     79 % 0 in open2300-1.11 W/m2
01:11 50.5 °F 44.2 °F 30 in Calm     79 % 0 in open2300-1.11 W/m2
02:10 50.2 °F 44.2 °F 30 in Calm     80 % 0 in open2300-1.11 W/m2
03:11 49.6 °F 44.1 °F 30 in Calm     81 % 0 in open2300-1.11 W/m2
04:10 49.1 °F 43.9 °F 29.9 in Calm     82 % 0 in open2300-1.11 W/m2
05:11 49.8 °F 44.8 °F 29.9 in Calm     83 % 0 in open2300-1.11 W/m2
06:10 49.8 °F 45.1 °F 29.9 in Calm     84 % 0 in open2300-1.11 W/m2
07:11 48.9 °F 44.2 °F 29.9 in Calm     84 % 0 in open2300-1.11 W/m2
08:10 48.9 °F 44.2 °F 29.9 in Calm     84 % 0 in open2300-1.11 W/m2
09:11 52.3 °F 47.3 °F 29.9 in Calm     83 % 0 in open2300-1.11 W/m2
10:10 54.7 °F 48.9 °F 30 in Calm     81 % 0 in open2300-1.11 W/m2
11:11 57.4 °F 50.9 °F 29.9 in SE 5.0 mph 5.0 mph 79 % 0 in open2300-1.11 W/m2
12:10 60.4 °F 51.8 °F 29.9 in SSE 5.0 mph 5.0 mph 73 % 0 in open2300-1.11 W/m2
13:11 61.9 °F 50.4 °F 29.9 in ESE 5.8 mph 6.8 mph 66 % 0 in open2300-1.11 W/m2
14:10 61.7 °F 49.8 °F 29.9 in Calm   4.0 mph 65 % 0 in open2300-1.11 W/m2
15:11 61.3 °F 49.8 °F 29.9 in Calm   5.0 mph 66 % 0 in open2300-1.11 W/m2
16:10 60.3 °F 49.3 °F 29.9 in Calm   2.1 mph 67 % 0 in open2300-1.11 W/m2
17:11 59.2 °F 49.5 °F 29.8 in Calm   1.4 mph 70 % 0 in open2300-1.11 W/m2
18:10 57.7 °F 49.1 °F 29.8 in Calm     73 % 0 in open2300-1.11 W/m2
19:11 56.8 °F 49.3 °F 29.8 in Calm   1.4 mph 76 % 0 in open2300-1.11 W/m2
20:10 56.5 °F 49.3 °F 29.8 in Calm   1.4 mph 77 % 0 in open2300-1.11 W/m2
21:11 56.1 °F 48.9 °F 29.8 in Calm     77 % 0 in open2300-1.11 W/m2
22:10 55.8 °F 48.6 °F 29.8 in Calm     77 % 0 in open2300-1.11 W/m2
23:11 54.3 °F 47.1 °F 29.8 in Calm     77 % 0 in open2300-1.11 W/m2
Observations météo à CASSIS
WU-History script by Weather Underground - 1 mb